This is the latest recevied weather packets stored in our database for station/object KC9NBZ. If no packets are shown the sender has not sent any weather packets the latest 10 day(s).
| Time | Temp. | Humidity | Pressure | Rain* | Wind** | Luminosity | Snow |
|---|---|---|---|---|---|---|---|
| 1777748119 | 12.22° C | 39% | 1016.8 hPa | 0 mm | - | 332 W/m² | - |
| 1777747519 | 12.22° C | 43% | 1017 hPa | 0 mm | - | 697 W/m² | - |
| 1777746320 | 11.67° C | 43% | 1017.1 hPa | 0 mm | - | 516 W/m² | - |
| 1777741520 | 11.11° C | 46% | 1017.9 hPa | 0 mm | - | 572 W/m² | - |
| 1777735521 | 9.44° C | 54% | 1019 hPa | 0 mm | - | 692 W/m² | - |
| 1777730722 | 7.22° C | 61% | 1019.5 hPa | 0 mm | - | 478 W/m² | - |
| 1777728921 | 6.67° C | 74% | 1019.5 hPa | 0 mm | - | 387 W/m² | - |
| 1777727719 | 5° C | 80% | 1019.5 hPa | 0 mm | - | 329 W/m² | - |
| 1777727121 | 4.44° C | 83% | 1019.5 hPa | 0 mm | - | 298 W/m² | - |
| 1777726523 | 3.33° C | 87% | 1019.5 hPa | 0 mm | - | 272 W/m² | - |
| 1777720520 | -3.33° C | 97% | 1018.7 hPa | 0 mm | - | 19 W/m² | - |
| 1777719919 | -3.33° C | 97% | 1018.6 hPa | 0 mm | - | 9 W/m² | - |
| 1777719320 | -3.33° C | 97% | 1018.6 hPa | 0 mm | - | 3 W/m² | - |
| 1777718720 | -3.33° C | 97% | 1018.7 hPa | 0 mm | - | 2 W/m² | - |
| 1777716320 | -3.33° C | 96% | 1018.5 hPa | 0 mm | - | 0 W/m² | - |
| 1777708523 | -2.22° C | 94% | 1018.5 hPa | 0 mm | - | 0 W/m² | - |
| 1777706122 | -1.67° C | 93% | 1018.6 hPa | 0 mm | - | 0 W/m² | - |
| 1777703719 | -2.22° C | 91% | 1018.7 hPa | 0 mm | - | 0 W/m² | - |
| 1777703120 | -2.22° C | 90% | 1018.8 hPa | 0 mm | - | 0 W/m² | - |
| 1777702520 | -1.67° C | 90% | 1018.8 hPa | 0 mm | - | 0 W/m² | - |
| 1777700143 | -0.56° C | 87% | 1018.7 hPa | 0 mm | - | 0 W/m² | - |
| 1777698919 | -0.56° C | 89% | 1018.8 hPa | 0 mm | - | 0 W/m² | - |
| 1777697142 | -0.56° C | 86% | 1018.7 hPa | 0 mm | - | 0 W/m² | - |
| 1777692320 | 1.11° C | 77% | 1018.6 hPa | 0 mm | - | 0 W/m² | - |
| 1777691125 | 1.67° C | 72% | 1018.4 hPa | 0 mm | - | 0 W/m² | - |
* Rain latest hour (hover to see other rain measurements)
** Current wind speed in m/s (hover to see current wind gust speed)